sensor_id;sensor_type;location;lat;lon;timestamp;P1;durP1;ratioP1;P2;durP2;ratioP2
49610;SDS011;35515;48.766;9.176;2023-12-07T00:01:16;10.90;;;7.07;;
49610;SDS011;35515;48.766;9.176;2023-12-07T00:03:42;11.90;;;7.63;;
49610;SDS011;35515;48.766;9.176;2023-12-07T00:06:10;11.07;;;7.10;;
49610;SDS011;35515;48.766;9.176;2023-12-07T00:08:37;10.90;;;6.78;;
49610;SDS011;35515;48.766;9.176;2023-12-07T00:11:03;10.70;;;6.90;;
49610;SDS011;35515;48.766;9.176;2023-12-07T00:13:31;9.43;;;6.53;;
49610;SDS011;35515;48.766;9.176;2023-12-07T00:15:57;9.52;;;6.93;;
49610;SDS011;35515;48.766;9.176;2023-12-07T00:18:24;10.20;;;7.25;;
49610;SDS011;35515;48.766;9.176;2023-12-07T00:20:50;9.82;;;6.90;;
49610;SDS011;35515;48.766;9.176;2023-12-07T00:23:18;11.63;;;6.65;;
49610;SDS011;35515;48.766;9.176;2023-12-07T00:25:47;8.63;;;6.30;;
49610;SDS011;35515;48.766;9.176;2023-12-07T00:28:14;9.88;;;6.63;;
49610;SDS011;35515;48.766;9.176;2023-12-07T00:30:41;8.15;;;6.47;;
49610;SDS011;35515;48.766;9.176;2023-12-07T00:33:08;10.45;;;6.43;;
49610;SDS011;35515;48.766;9.176;2023-12-07T00:35:35;13.63;;;7.40;;
49610;SDS011;35515;48.766;9.176;2023-12-07T00:38:01;11.82;;;7.47;;
49610;SDS011;35515;48.766;9.176;2023-12-07T00:40:29;12.38;;;7.28;;
49610;SDS011;35515;48.766;9.176;2023-12-07T00:43:00;12.63;;;7.35;;
49610;SDS011;35515;48.766;9.176;2023-12-07T00:45:27;9.07;;;6.80;;
49610;SDS011;35515;48.766;9.176;2023-12-07T00:47:53;10.10;;;7.40;;
49610;SDS011;35515;48.766;9.176;2023-12-07T00:50:20;10.85;;;7.38;;
49610;SDS011;35515;48.766;9.176;2023-12-07T00:52:46;10.02;;;6.50;;
49610;SDS011;35515;48.766;9.176;2023-12-07T00:55:13;12.18;;;7.80;;
49610;SDS011;35515;48.766;9.176;2023-12-07T00:57:41;9.48;;;6.25;;
49610;SDS011;35515;48.766;9.176;2023-12-07T01:00:08;9.10;;;6.35;;
49610;SDS011;35515;48.766;9.176;2023-12-07T01:02:35;9.27;;;6.65;;
49610;SDS011;35515;48.766;9.176;2023-12-07T01:05:02;10.23;;;6.47;;
49610;SDS011;35515;48.766;9.176;2023-12-07T01:07:29;8.60;;;6.25;;
49610;SDS011;35515;48.766;9.176;2023-12-07T01:09:55;12.70;;;6.30;;
49610;SDS011;35515;48.766;9.176;2023-12-07T01:12:22;9.15;;;6.80;;
49610;SDS011;35515;48.766;9.176;2023-12-07T01:14:50;8.52;;;6.25;;
49610;SDS011;35515;48.766;9.176;2023-12-07T01:17:18;9.82;;;5.10;;
49610;SDS011;35515;48.766;9.176;2023-12-07T01:19:46;8.75;;;6.30;;
49610;SDS011;35515;48.766;9.176;2023-12-07T01:22:13;9.38;;;6.15;;
49610;SDS011;35515;48.766;9.176;2023-12-07T01:24:40;9.27;;;6.10;;
49610;SDS011;35515;48.766;9.176;2023-12-07T01:27:06;7.88;;;5.75;;
49610;SDS011;35515;48.766;9.176;2023-12-07T01:29:33;10.98;;;6.63;;
49610;SDS011;35515;48.766;9.176;2023-12-07T01:32:00;10.48;;;6.80;;
49610;SDS011;35515;48.766;9.176;2023-12-07T01:34:27;12.75;;;6.32;;
49610;SDS011;35515;48.766;9.176;2023-12-07T01:36:53;8.88;;;5.88;;
49610;SDS011;35515;48.766;9.176;2023-12-07T01:39:20;9.15;;;5.85;;
49610;SDS011;35515;48.766;9.176;2023-12-07T01:41:47;8.82;;;5.82;;
49610;SDS011;35515;48.766;9.176;2023-12-07T01:44:13;7.40;;;5.60;;
49610;SDS011;35515;48.766;9.176;2023-12-07T01:46:40;10.20;;;6.63;;
49610;SDS011;35515;48.766;9.176;2023-12-07T01:49:08;8.57;;;5.57;;
49610;SDS011;35515;48.766;9.176;2023-12-07T01:51:35;9.40;;;5.75;;
49610;SDS011;35515;48.766;9.176;2023-12-07T01:54:02;9.82;;;5.80;;
49610;SDS011;35515;48.766;9.176;2023-12-07T01:56:29;8.60;;;5.60;;
49610;SDS011;35515;48.766;9.176;2023-12-07T01:58:56;9.15;;;5.60;;
49610;SDS011;35515;48.766;9.176;2023-12-07T02:01:23;9.80;;;5.75;;
49610;SDS011;35515;48.766;9.176;2023-12-07T02:03:49;8.85;;;5.97;;
49610;SDS011;35515;48.766;9.176;2023-12-07T02:06:17;9.93;;;5.82;;
49610;SDS011;35515;48.766;9.176;2023-12-07T02:08:45;9.63;;;6.43;;
49610;SDS011;35515;48.766;9.176;2023-12-07T02:11:12;8.35;;;5.82;;
49610;SDS011;35515;48.766;9.176;2023-12-07T02:13:38;9.75;;;5.80;;
49610;SDS011;35515;48.766;9.176;2023-12-07T02:16:07;7.38;;;5.72;;
49610;SDS011;35515;48.766;9.176;2023-12-07T02:18:43;8.50;;;6.07;;
49610;SDS011;35515;48.766;9.176;2023-12-07T02:21:21;11.18;;;6.57;;
49610;SDS011;35515;48.766;9.176;2023-12-07T02:23:51;8.38;;;5.65;;
49610;SDS011;35515;48.766;9.176;2023-12-07T02:26:18;10.45;;;6.38;;
49610;SDS011;35515;48.766;9.176;2023-12-07T02:28:49;9.00;;;5.95;;
49610;SDS011;35515;48.766;9.176;2023-12-07T02:31:15;11.23;;;5.93;;
49610;SDS011;35515;48.766;9.176;2023-12-07T02:33:42;10.48;;;6.43;;
49610;SDS011;35515;48.766;9.176;2023-12-07T02:36:09;9.73;;;6.43;;
49610;SDS011;35515;48.766;9.176;2023-12-07T02:38:36;10.15;;;6.55;;
49610;SDS011;35515;48.766;9.176;2023-12-07T02:41:04;8.80;;;5.72;;
49610;SDS011;35515;48.766;9.176;2023-12-07T02:43:33;12.50;;;6.68;;
49610;SDS011;35515;48.766;9.176;2023-12-07T02:46:01;8.50;;;6.13;;
49610;SDS011;35515;48.766;9.176;2023-12-07T02:48:28;12.18;;;6.30;;
49610;SDS011;35515;48.766;9.176;2023-12-07T02:50:55;8.88;;;5.93;;
49610;SDS011;35515;48.766;9.176;2023-12-07T02:53:22;10.10;;;6.30;;
49610;SDS011;35515;48.766;9.176;2023-12-07T02:55:48;11.43;;;7.30;;
49610;SDS011;35515;48.766;9.176;2023-12-07T02:58:15;10.02;;;6.50;;
49610;SDS011;35515;48.766;9.176;2023-12-07T03:00:41;8.10;;;5.78;;
49610;SDS011;35515;48.766;9.176;2023-12-07T03:03:09;9.73;;;6.50;;
49610;SDS011;35515;48.766;9.176;2023-12-07T03:05:36;10.65;;;6.65;;
49610;SDS011;35515;48.766;9.176;2023-12-07T03:08:02;8.70;;;5.88;;
49610;SDS011;35515;48.766;9.176;2023-12-07T03:10:29;10.30;;;6.75;;
49610;SDS011;35515;48.766;9.176;2023-12-07T03:12:55;10.15;;;7.15;;
49610;SDS011;35515;48.766;9.176;2023-12-07T03:15:22;8.55;;;6.07;;
49610;SDS011;35515;48.766;9.176;2023-12-07T03:17:48;9.18;;;6.35;;
49610;SDS011;35515;48.766;9.176;2023-12-07T03:20:17;8.05;;;5.63;;
49610;SDS011;35515;48.766;9.176;2023-12-07T03:22:43;9.57;;;6.53;;
49610;SDS011;35515;48.766;9.176;2023-12-07T03:25:10;7.75;;;6.00;;
49610;SDS011;35515;48.766;9.176;2023-12-07T03:27:36;11.88;;;6.70;;
49610;SDS011;35515;48.766;9.176;2023-12-07T03:30:03;9.55;;;6.40;;
49610;SDS011;35515;48.766;9.176;2023-12-07T03:32:30;11.75;;;6.90;;
49610;SDS011;35515;48.766;9.176;2023-12-07T03:34:57;8.98;;;6.18;;
49610;SDS011;35515;48.766;9.176;2023-12-07T03:37:25;10.27;;;6.28;;
49610;SDS011;35515;48.766;9.176;2023-12-07T03:39:51;10.50;;;6.82;;
49610;SDS011;35515;48.766;9.176;2023-12-07T03:42:18;8.45;;;6.20;;
49610;SDS011;35515;48.766;9.176;2023-12-07T03:44:44;8.43;;;6.55;;
49610;SDS011;35515;48.766;9.176;2023-12-07T03:47:11;9.77;;;7.15;;
49610;SDS011;35515;48.766;9.176;2023-12-07T03:49:37;8.48;;;6.25;;
49610;SDS011;35515;48.766;9.176;2023-12-07T03:52:06;10.80;;;6.75;;
49610;SDS011;35515;48.766;9.176;2023-12-07T03:54:34;11.90;;;7.22;;
49610;SDS011;35515;48.766;9.176;2023-12-07T03:57:00;9.35;;;6.50;;
49610;SDS011;35515;48.766;9.176;2023-12-07T03:59:27;9.45;;;6.60;;
49610;SDS011;35515;48.766;9.176;2023-12-07T04:01:53;10.32;;;6.50;;
49610;SDS011;35515;48.766;9.176;2023-12-07T04:04:20;10.02;;;7.55;;
49610;SDS011;35515;48.766;9.176;2023-12-07T04:06:46;9.65;;;6.53;;
49610;SDS011;35515;48.766;9.176;2023-12-07T04:09:13;10.82;;;7.07;;
49610;SDS011;35515;48.766;9.176;2023-12-07T04:11:41;10.52;;;6.65;;
49610;SDS011;35515;48.766;9.176;2023-12-07T04:14:07;12.23;;;7.43;;
49610;SDS011;35515;48.766;9.176;2023-12-07T04:16:34;13.52;;;7.45;;
49610;SDS011;35515;48.766;9.176;2023-12-07T04:19:00;11.77;;;7.75;;
49610;SDS011;35515;48.766;9.176;2023-12-07T04:21:27;13.23;;;8.13;;
49610;SDS011;35515;48.766;9.176;2023-12-07T04:23:54;12.82;;;7.60;;
49610;SDS011;35515;48.766;9.176;2023-12-07T04:26:20;14.38;;;8.50;;
49610;SDS011;35515;48.766;9.176;2023-12-07T04:28:48;12.70;;;7.90;;
49610;SDS011;35515;48.766;9.176;2023-12-07T04:31:14;9.85;;;7.55;;
49610;SDS011;35515;48.766;9.176;2023-12-07T04:33:41;11.15;;;7.47;;
49610;SDS011;35515;48.766;9.176;2023-12-07T04:36:08;12.05;;;7.63;;
49610;SDS011;35515;48.766;9.176;2023-12-07T04:38:35;12.27;;;7.95;;
49610;SDS011;35515;48.766;9.176;2023-12-07T04:41:01;12.90;;;7.47;;
49610;SDS011;35515;48.766;9.176;2023-12-07T04:43:28;13.82;;;8.10;;
49610;SDS011;35515;48.766;9.176;2023-12-07T04:45:56;11.25;;;8.32;;
49610;SDS011;35515;48.766;9.176;2023-12-07T04:48:23;11.32;;;7.80;;
49610;SDS011;35515;48.766;9.176;2023-12-07T04:50:50;12.48;;;8.05;;
49610;SDS011;35515;48.766;9.176;2023-12-07T04:53:17;11.32;;;7.80;;
49610;SDS011;35515;48.766;9.176;2023-12-07T04:55:43;10.82;;;7.57;;
49610;SDS011;35515;48.766;9.176;2023-12-07T04:58:15;12.68;;;8.00;;
49610;SDS011;35515;48.766;9.176;2023-12-07T05:00:41;11.52;;;7.63;;
49610;SDS011;35515;48.766;9.176;2023-12-07T05:03:09;10.02;;;7.40;;
49610;SDS011;35515;48.766;9.176;2023-12-07T05:05:36;13.57;;;9.13;;
49610;SDS011;35515;48.766;9.176;2023-12-07T05:08:02;10.98;;;7.90;;
49610;SDS011;35515;48.766;9.176;2023-12-07T05:10:29;13.10;;;8.68;;
49610;SDS011;35515;48.766;9.176;2023-12-07T05:12:56;16.20;;;8.25;;
49610;SDS011;35515;48.766;9.176;2023-12-07T05:15:23;11.05;;;7.53;;
49610;SDS011;35515;48.766;9.176;2023-12-07T05:17:49;10.52;;;7.47;;
49610;SDS011;35515;48.766;9.176;2023-12-07T05:20:17;12.55;;;7.60;;
49610;SDS011;35515;48.766;9.176;2023-12-07T05:22:47;13.25;;;8.70;;
49610;SDS011;35515;48.766;9.176;2023-12-07T05:25:14;11.27;;;8.68;;
49610;SDS011;35515;48.766;9.176;2023-12-07T05:27:40;13.90;;;8.98;;
49610;SDS011;35515;48.766;9.176;2023-12-07T05:30:07;19.00;;;8.73;;
49610;SDS011;35515;48.766;9.176;2023-12-07T05:32:35;12.98;;;8.68;;
49610;SDS011;35515;48.766;9.176;2023-12-07T05:35:01;13.13;;;8.38;;
49610;SDS011;35515;48.766;9.176;2023-12-07T05:37:30;13.57;;;7.97;;
49610;SDS011;35515;48.766;9.176;2023-12-07T05:39:56;11.25;;;7.78;;
49610;SDS011;35515;48.766;9.176;2023-12-07T05:42:23;12.55;;;8.52;;
49610;SDS011;35515;48.766;9.176;2023-12-07T05:44:49;12.00;;;7.68;;
49610;SDS011;35515;48.766;9.176;2023-12-07T05:47:16;14.35;;;8.13;;
49610;SDS011;35515;48.766;9.176;2023-12-07T05:49:42;11.68;;;8.25;;
49610;SDS011;35515;48.766;9.176;2023-12-07T05:52:09;12.63;;;8.40;;
49610;SDS011;35515;48.766;9.176;2023-12-07T05:54:38;10.90;;;7.43;;
49610;SDS011;35515;48.766;9.176;2023-12-07T05:57:07;12.20;;;8.65;;
49610;SDS011;35515;48.766;9.176;2023-12-07T05:59:36;12.60;;;8.35;;
49610;SDS011;35515;48.766;9.176;2023-12-07T06:02:03;13.63;;;8.35;;
49610;SDS011;35515;48.766;9.176;2023-12-07T06:04:29;12.65;;;8.00;;
49610;SDS011;35515;48.766;9.176;2023-12-07T06:06:56;12.77;;;8.90;;
49610;SDS011;35515;48.766;9.176;2023-12-07T06:09:22;14.18;;;8.60;;
49610;SDS011;35515;48.766;9.176;2023-12-07T06:11:50;13.35;;;8.77;;
49610;SDS011;35515;48.766;9.176;2023-12-07T06:14:17;14.25;;;9.18;;
49610;SDS011;35515;48.766;9.176;2023-12-07T06:16:43;14.40;;;9.18;;
49610;SDS011;35515;48.766;9.176;2023-12-07T06:19:09;13.23;;;9.52;;
49610;SDS011;35515;48.766;9.176;2023-12-07T06:21:36;13.90;;;8.20;;
49610;SDS011;35515;48.766;9.176;2023-12-07T06:24:03;15.95;;;9.55;;
49610;SDS011;35515;48.766;9.176;2023-12-07T06:26:30;12.32;;;9.02;;
49610;SDS011;35515;48.766;9.176;2023-12-07T06:28:57;14.05;;;8.93;;
49610;SDS011;35515;48.766;9.176;2023-12-07T06:31:24;13.05;;;9.35;;
49610;SDS011;35515;48.766;9.176;2023-12-07T06:33:51;13.82;;;9.07;;
49610;SDS011;35515;48.766;9.176;2023-12-07T06:36:18;13.85;;;9.13;;
49610;SDS011;35515;48.766;9.176;2023-12-07T06:38:45;12.40;;;8.32;;
49610;SDS011;35515;48.766;9.176;2023-12-07T06:41:12;14.98;;;9.30;;
49610;SDS011;35515;48.766;9.176;2023-12-07T06:43:38;13.77;;;8.65;;
49610;SDS011;35515;48.766;9.176;2023-12-07T06:46:06;14.40;;;8.80;;
49610;SDS011;35515;48.766;9.176;2023-12-07T06:48:33;14.13;;;8.75;;
49610;SDS011;35515;48.766;9.176;2023-12-07T06:51:00;13.52;;;8.90;;
49610;SDS011;35515;48.766;9.176;2023-12-07T06:53:27;12.15;;;9.18;;
49610;SDS011;35515;48.766;9.176;2023-12-07T06:55:54;15.75;;;9.43;;
49610;SDS011;35515;48.766;9.176;2023-12-07T06:58:20;15.15;;;9.68;;
49610;SDS011;35515;48.766;9.176;2023-12-07T07:00:47;14.20;;;8.65;;
49610;SDS011;35515;48.766;9.176;2023-12-07T07:03:15;17.35;;;10.57;;
49610;SDS011;35515;48.766;9.176;2023-12-07T07:05:42;14.23;;;8.02;;
49610;SDS011;35515;48.766;9.176;2023-12-07T07:08:08;13.55;;;8.90;;
49610;SDS011;35515;48.766;9.176;2023-12-07T07:10:35;13.75;;;8.95;;
49610;SDS011;35515;48.766;9.176;2023-12-07T07:13:01;13.38;;;9.38;;
49610;SDS011;35515;48.766;9.176;2023-12-07T07:15:29;13.23;;;8.73;;
49610;SDS011;35515;48.766;9.176;2023-12-07T07:17:56;14.55;;;9.65;;
49610;SDS011;35515;48.766;9.176;2023-12-07T07:20:24;15.52;;;9.35;;
49610;SDS011;35515;48.766;9.176;2023-12-07T07:22:50;12.70;;;8.90;;
49610;SDS011;35515;48.766;9.176;2023-12-07T07:25:17;16.15;;;9.32;;
49610;SDS011;35515;48.766;9.176;2023-12-07T07:27:44;13.27;;;9.15;;
49610;SDS011;35515;48.766;9.176;2023-12-07T07:30:11;12.15;;;8.52;;
49610;SDS011;35515;48.766;9.176;2023-12-07T07:32:38;18.67;;;11.23;;
49610;SDS011;35515;48.766;9.176;2023-12-07T07:35:05;15.50;;;9.75;;
49610;SDS011;35515;48.766;9.176;2023-12-07T07:37:33;14.02;;;9.07;;
49610;SDS011;35515;48.766;9.176;2023-12-07T07:40:00;15.80;;;9.48;;
49610;SDS011;35515;48.766;9.176;2023-12-07T07:42:31;15.52;;;10.48;;
49610;SDS011;35515;48.766;9.176;2023-12-07T07:44:58;18.08;;;10.57;;
49610;SDS011;35515;48.766;9.176;2023-12-07T07:47:24;15.77;;;9.38;;
49610;SDS011;35515;48.766;9.176;2023-12-07T07:49:51;16.40;;;10.65;;
49610;SDS011;35515;48.766;9.176;2023-12-07T07:52:18;16.25;;;9.93;;
49610;SDS011;35515;48.766;9.176;2023-12-07T07:54:45;14.57;;;10.20;;
49610;SDS011;35515;48.766;9.176;2023-12-07T07:57:12;14.30;;;9.70;;
49610;SDS011;35515;48.766;9.176;2023-12-07T07:59:38;21.08;;;10.93;;
49610;SDS011;35515;48.766;9.176;2023-12-07T08:02:05;15.93;;;10.30;;
49610;SDS011;35515;48.766;9.176;2023-12-07T08:04:31;19.50;;;10.52;;
49610;SDS011;35515;48.766;9.176;2023-12-07T08:06:58;20.55;;;11.40;;
49610;SDS011;35515;48.766;9.176;2023-12-07T08:09:25;19.58;;;11.15;;
49610;SDS011;35515;48.766;9.176;2023-12-07T08:11:52;16.58;;;11.02;;
49610;SDS011;35515;48.766;9.176;2023-12-07T08:14:19;18.65;;;10.82;;
49610;SDS011;35515;48.766;9.176;2023-12-07T08:16:45;16.58;;;10.00;;
49610;SDS011;35515;48.766;9.176;2023-12-07T08:19:12;16.63;;;10.13;;
49610;SDS011;35515;48.766;9.176;2023-12-07T08:21:39;16.67;;;9.68;;
49610;SDS011;35515;48.766;9.176;2023-12-07T08:24:05;17.27;;;10.48;;
49610;SDS011;35515;48.766;9.176;2023-12-07T08:26:33;14.32;;;10.07;;
49610;SDS011;35515;48.766;9.176;2023-12-07T08:29:01;15.77;;;10.40;;
49610;SDS011;35515;48.766;9.176;2023-12-07T08:31:28;17.30;;;11.45;;
49610;SDS011;35515;48.766;9.176;2023-12-07T08:33:55;16.70;;;11.27;;
49610;SDS011;35515;48.766;9.176;2023-12-07T08:36:21;16.90;;;11.13;;
49610;SDS011;35515;48.766;9.176;2023-12-07T08:38:48;17.35;;;10.43;;
49610;SDS011;35515;48.766;9.176;2023-12-07T08:41:14;18.20;;;11.48;;
49610;SDS011;35515;48.766;9.176;2023-12-07T08:43:41;17.55;;;10.73;;
49610;SDS011;35515;48.766;9.176;2023-12-07T08:46:09;16.60;;;10.90;;
49610;SDS011;35515;48.766;9.176;2023-12-07T08:48:35;17.73;;;10.80;;
49610;SDS011;35515;48.766;9.176;2023-12-07T08:51:03;16.73;;;11.38;;
49610;SDS011;35515;48.766;9.176;2023-12-07T08:53:29;15.57;;;10.63;;
49610;SDS011;35515;48.766;9.176;2023-12-07T08:55:56;15.38;;;10.85;;
49610;SDS011;35515;48.766;9.176;2023-12-07T08:58:22;18.58;;;11.77;;
49610;SDS011;35515;48.766;9.176;2023-12-07T09:00:49;16.45;;;11.35;;
49610;SDS011;35515;48.766;9.176;2023-12-07T09:03:16;15.07;;;10.75;;
49610;SDS011;35515;48.766;9.176;2023-12-07T09:05:43;18.60;;;10.70;;
49610;SDS011;35515;48.766;9.176;2023-12-07T09:08:09;14.68;;;10.93;;
49610;SDS011;35515;48.766;9.176;2023-12-07T09:10:35;15.00;;;10.65;;
49610;SDS011;35515;48.766;9.176;2023-12-07T09:13:02;14.48;;;10.35;;
49610;SDS011;35515;48.766;9.176;2023-12-07T09:15:28;15.23;;;10.45;;
49610;SDS011;35515;48.766;9.176;2023-12-07T09:17:55;17.50;;;11.35;;
49610;SDS011;35515;48.766;9.176;2023-12-07T09:20:23;16.40;;;10.05;;
49610;SDS011;35515;48.766;9.176;2023-12-07T09:22:49;16.83;;;10.63;;
49610;SDS011;35515;48.766;9.176;2023-12-07T09:25:16;15.77;;;10.48;;
49610;SDS011;35515;48.766;9.176;2023-12-07T09:27:43;15.70;;;10.15;;
49610;SDS011;35515;48.766;9.176;2023-12-07T09:30:09;14.73;;;10.10;;
49610;SDS011;35515;48.766;9.176;2023-12-07T09:32:37;17.52;;;10.70;;
49610;SDS011;35515;48.766;9.176;2023-12-07T09:35:04;27.70;;;10.93;;
49610;SDS011;35515;48.766;9.176;2023-12-07T09:37:33;31.83;;;12.30;;
49610;SDS011;35515;48.766;9.176;2023-12-07T09:40:00;29.98;;;13.60;;
49610;SDS011;35515;48.766;9.176;2023-12-07T09:42:29;21.75;;;11.80;;
49610;SDS011;35515;48.766;9.176;2023-12-07T09:44:56;18.98;;;9.45;;
49610;SDS011;35515;48.766;9.176;2023-12-07T09:47:22;18.40;;;11.38;;
49610;SDS011;35515;48.766;9.176;2023-12-07T09:49:49;17.98;;;10.05;;
49610;SDS011;35515;48.766;9.176;2023-12-07T09:52:16;19.65;;;11.23;;
49610;SDS011;35515;48.766;9.176;2023-12-07T09:54:44;17.75;;;10.13;;
49610;SDS011;35515;48.766;9.176;2023-12-07T09:57:12;16.25;;;10.50;;
49610;SDS011;35515;48.766;9.176;2023-12-07T09:59:39;17.20;;;11.13;;
49610;SDS011;35515;48.766;9.176;2023-12-07T10:02:06;16.27;;;9.98;;
49610;SDS011;35515;48.766;9.176;2023-12-07T10:04:33;14.43;;;8.77;;
49610;SDS011;35515;48.766;9.176;2023-12-07T10:07:01;14.05;;;8.85;;
49610;SDS011;35515;48.766;9.176;2023-12-07T10:09:28;13.00;;;9.80;;
49610;SDS011;35515;48.766;9.176;2023-12-07T10:12:02;14.70;;;9.48;;
49610;SDS011;35515;48.766;9.176;2023-12-07T10:14:30;13.15;;;8.65;;
49610;SDS011;35515;48.766;9.176;2023-12-07T10:16:56;18.90;;;11.50;;
49610;SDS011;35515;48.766;9.176;2023-12-07T10:19:23;21.00;;;11.05;;
49610;SDS011;35515;48.766;9.176;2023-12-07T10:21:51;17.50;;;10.25;;
49610;SDS011;35515;48.766;9.176;2023-12-07T10:24:18;17.88;;;11.32;;
49610;SDS011;35515;48.766;9.176;2023-12-07T10:26:46;13.07;;;9.15;;
49610;SDS011;35515;48.766;9.176;2023-12-07T10:29:16;15.50;;;9.43;;
49610;SDS011;35515;48.766;9.176;2023-12-07T10:31:43;16.88;;;9.45;;
49610;SDS011;35515;48.766;9.176;2023-12-07T10:34:12;15.82;;;10.35;;
49610;SDS011;35515;48.766;9.176;2023-12-07T10:36:38;15.32;;;10.25;;
49610;SDS011;35515;48.766;9.176;2023-12-07T10:39:05;14.90;;;8.93;;
49610;SDS011;35515;48.766;9.176;2023-12-07T10:41:33;18.38;;;9.57;;
49610;SDS011;35515;48.766;9.176;2023-12-07T10:44:03;12.38;;;9.15;;
49610;SDS011;35515;48.766;9.176;2023-12-07T10:46:34;13.43;;;8.65;;
49610;SDS011;35515;48.766;9.176;2023-12-07T10:49:01;13.00;;;9.32;;
49610;SDS011;35515;48.766;9.176;2023-12-07T10:51:31;11.85;;;8.35;;
49610;SDS011;35515;48.766;9.176;2023-12-07T10:54:04;11.95;;;7.78;;
49610;SDS011;35515;48.766;9.176;2023-12-07T10:56:34;9.27;;;6.45;;
49610;SDS011;35515;48.766;9.176;2023-12-07T10:59:05;9.18;;;5.97;;
49610;SDS011;35515;48.766;9.176;2023-12-07T11:01:36;11.95;;;5.82;;
49610;SDS011;35515;48.766;9.176;2023-12-07T11:04:04;10.07;;;6.15;;
49610;SDS011;35515;48.766;9.176;2023-12-07T11:06:31;8.48;;;5.80;;
49610;SDS011;35515;48.766;9.176;2023-12-07T11:08:59;8.93;;;5.88;;
49610;SDS011;35515;48.766;9.176;2023-12-07T11:11:29;8.48;;;5.55;;
49610;SDS011;35515;48.766;9.176;2023-12-07T11:14:02;10.90;;;5.03;;
49610;SDS011;35515;48.766;9.176;2023-12-07T11:16:31;9.75;;;4.75;;
49610;SDS011;35515;48.766;9.176;2023-12-07T11:18:59;10.32;;;5.35;;
49610;SDS011;35515;48.766;9.176;2023-12-07T11:21:26;6.47;;;4.38;;
49610;SDS011;35515;48.766;9.176;2023-12-07T11:23:53;6.82;;;4.53;;
49610;SDS011;35515;48.766;9.176;2023-12-07T11:26:20;11.00;;;5.00;;
49610;SDS011;35515;48.766;9.176;2023-12-07T11:28:48;7.65;;;4.15;;
49610;SDS011;35515;48.766;9.176;2023-12-07T11:31:15;9.02;;;4.40;;
49610;SDS011;35515;48.766;9.176;2023-12-07T11:33:42;7.85;;;4.00;;
49610;SDS011;35515;48.766;9.176;2023-12-07T11:36:11;5.45;;;3.60;;
49610;SDS011;35515;48.766;9.176;2023-12-07T11:38:39;6.45;;;4.10;;
49610;SDS011;35515;48.766;9.176;2023-12-07T11:41:46;7.35;;;4.13;;
49610;SDS011;35515;48.766;9.176;2023-12-07T11:44:17;6.23;;;3.87;;
49610;SDS011;35515;48.766;9.176;2023-12-07T11:46:44;7.00;;;3.83;;
49610;SDS011;35515;48.766;9.176;2023-12-07T11:49:11;6.90;;;3.72;;
49610;SDS011;35515;48.766;9.176;2023-12-07T11:51:39;6.55;;;3.50;;
49610;SDS011;35515;48.766;9.176;2023-12-07T11:54:06;5.47;;;3.25;;
49610;SDS011;35515;48.766;9.176;2023-12-07T11:56:36;5.32;;;2.92;;
49610;SDS011;35515;48.766;9.176;2023-12-07T11:59:03;4.47;;;3.10;;
49610;SDS011;35515;48.766;9.176;2023-12-07T12:01:29;4.18;;;3.08;;
49610;SDS011;35515;48.766;9.176;2023-12-07T12:03:56;5.82;;;3.40;;
49610;SDS011;35515;48.766;9.176;2023-12-07T12:06:23;6.40;;;3.83;;
49610;SDS011;35515;48.766;9.176;2023-12-07T12:08:52;7.30;;;3.45;;
49610;SDS011;35515;48.766;9.176;2023-12-07T12:11:19;6.60;;;3.53;;
49610;SDS011;35515;48.766;9.176;2023-12-07T12:13:45;10.27;;;3.78;;
49610;SDS011;35515;48.766;9.176;2023-12-07T12:16:13;5.85;;;3.55;;
49610;SDS011;35515;48.766;9.176;2023-12-07T12:18:41;6.20;;;3.75;;
49610;SDS011;35515;48.766;9.176;2023-12-07T12:21:08;7.45;;;3.75;;
49610;SDS011;35515;48.766;9.176;2023-12-07T12:23:35;5.45;;;3.67;;
49610;SDS011;35515;48.766;9.176;2023-12-07T12:26:03;13.43;;;4.85;;
49610;SDS011;35515;48.766;9.176;2023-12-07T12:28:31;6.80;;;3.58;;
49610;SDS011;35515;48.766;9.176;2023-12-07T12:31:00;8.20;;;4.25;;
49610;SDS011;35515;48.766;9.176;2023-12-07T12:33:27;6.25;;;4.18;;
49610;SDS011;35515;48.766;9.176;2023-12-07T12:36:01;9.45;;;4.63;;
49610;SDS011;35515;48.766;9.176;2023-12-07T12:38:29;6.97;;;4.65;;
49610;SDS011;35515;48.766;9.176;2023-12-07T12:40:56;6.03;;;4.35;;
49610;SDS011;35515;48.766;9.176;2023-12-07T12:43:23;8.82;;;4.72;;
49610;SDS011;35515;48.766;9.176;2023-12-07T12:45:50;9.50;;;4.50;;
49610;SDS011;35515;48.766;9.176;2023-12-07T12:48:17;12.05;;;6.57;;
49610;SDS011;35515;48.766;9.176;2023-12-07T12:50:43;8.68;;;4.90;;
49610;SDS011;35515;48.766;9.176;2023-12-07T12:53:10;10.32;;;5.05;;
49610;SDS011;35515;48.766;9.176;2023-12-07T12:55:39;8.27;;;4.70;;
49610;SDS011;35515;48.766;9.176;2023-12-07T12:58:08;9.18;;;5.15;;
49610;SDS011;35515;48.766;9.176;2023-12-07T13:00:38;9.10;;;5.32;;
49610;SDS011;35515;48.766;9.176;2023-12-07T13:03:06;9.23;;;4.40;;
49610;SDS011;35515;48.766;9.176;2023-12-07T13:05:33;9.60;;;4.90;;
49610;SDS011;35515;48.766;9.176;2023-12-07T13:08:00;8.40;;;5.32;;
49610;SDS011;35515;48.766;9.176;2023-12-07T13:10:26;10.95;;;5.25;;
49610;SDS011;35515;48.766;9.176;2023-12-07T13:12:53;8.20;;;5.22;;
49610;SDS011;35515;48.766;9.176;2023-12-07T13:15:21;10.80;;;5.32;;
49610;SDS011;35515;48.766;9.176;2023-12-07T13:17:49;7.43;;;5.22;;
49610;SDS011;35515;48.766;9.176;2023-12-07T13:20:16;8.80;;;5.07;;
49610;SDS011;35515;48.766;9.176;2023-12-07T13:22:43;8.23;;;5.15;;
49610;SDS011;35515;48.766;9.176;2023-12-07T13:25:09;9.80;;;5.50;;
49610;SDS011;35515;48.766;9.176;2023-12-07T13:27:37;10.60;;;6.20;;
49610;SDS011;35515;48.766;9.176;2023-12-07T13:30:04;8.73;;;5.22;;
49610;SDS011;35515;48.766;9.176;2023-12-07T13:32:31;8.10;;;6.10;;
49610;SDS011;35515;48.766;9.176;2023-12-07T13:34:59;9.77;;;6.18;;
49610;SDS011;35515;48.766;9.176;2023-12-07T13:37:27;9.02;;;5.97;;
49610;SDS011;35515;48.766;9.176;2023-12-07T13:39:53;9.85;;;5.80;;
49610;SDS011;35515;48.766;9.176;2023-12-07T13:42:23;9.65;;;5.75;;
49610;SDS011;35515;48.766;9.176;2023-12-07T13:44:51;9.70;;;5.70;;
49610;SDS011;35515;48.766;9.176;2023-12-07T13:47:18;9.80;;;5.70;;
49610;SDS011;35515;48.766;9.176;2023-12-07T13:49:47;9.55;;;5.07;;
49610;SDS011;35515;48.766;9.176;2023-12-07T13:52:15;10.63;;;5.50;;
49610;SDS011;35515;48.766;9.176;2023-12-07T13:54:42;9.10;;;5.38;;
49610;SDS011;35515;48.766;9.176;2023-12-07T13:57:09;9.40;;;5.10;;
49610;SDS011;35515;48.766;9.176;2023-12-07T13:59:37;8.48;;;5.05;;
49610;SDS011;35515;48.766;9.176;2023-12-07T14:02:05;10.52;;;4.82;;
49610;SDS011;35515;48.766;9.176;2023-12-07T14:04:31;6.55;;;3.80;;
49610;SDS011;35515;48.766;9.176;2023-12-07T14:07:06;8.20;;;4.05;;
49610;SDS011;35515;48.766;9.176;2023-12-07T14:09:35;8.07;;;4.32;;
49610;SDS011;35515;48.766;9.176;2023-12-07T14:12:01;8.77;;;4.18;;
49610;SDS011;35515;48.766;9.176;2023-12-07T14:14:28;6.82;;;4.38;;
49610;SDS011;35515;48.766;9.176;2023-12-07T14:16:55;5.25;;;3.45;;
49610;SDS011;35515;48.766;9.176;2023-12-07T14:19:21;6.43;;;3.25;;
49610;SDS011;35515;48.766;9.176;2023-12-07T14:21:48;4.70;;;3.20;;
49610;SDS011;35515;48.766;9.176;2023-12-07T14:24:14;5.65;;;3.30;;
49610;SDS011;35515;48.766;9.176;2023-12-07T14:26:43;6.50;;;3.40;;
49610;SDS011;35515;48.766;9.176;2023-12-07T14:29:09;5.72;;;3.80;;
49610;SDS011;35515;48.766;9.176;2023-12-07T14:31:39;6.38;;;3.10;;
49610;SDS011;35515;48.766;9.176;2023-12-07T14:34:06;6.10;;;3.28;;
49610;SDS011;35515;48.766;9.176;2023-12-07T14:36:33;4.30;;;2.95;;
49610;SDS011;35515;48.766;9.176;2023-12-07T14:38:59;5.68;;;3.08;;